Time;durP1;ratioP1;P1;durP2;ratioP2;P2;SDS_P1;SDS_P2;PMS_P1;PMS_P2;Temp;Humidity;BMP_temperature;BMP_pressure;BME280_temperature;BME280_humidity;BME280_pressure;Samples;Min_cycle;Max_cycle;Signal;HPM_P1;HPM_P2
2023/03/16 00:01:56;;;;;;;13.87;6.30;;;;;;;-3.93;100.00;96968.72;10335319;28;20205;-63
2023/03/16 00:06:57;;;;;;;8.30;5.90;;;;;;;-3.97;100.00;96973.09;10334973;28;20200;-63
2023/03/16 00:11:58;;;;;;;15.43;6.00;;;;;;;-3.93;100.00;96967.88;10335541;28;20221;-63
2023/03/16 00:16:58;;;;;;;14.17;6.53;;;;;;;-3.90;100.00;96970.31;10334912;28;20198;-63
2023/03/16 00:21:58;;;;;;;18.03;7.60;;;;;;;-3.88;100.00;96973.66;10334718;28;20592;-63
2023/03/16 00:26:59;;;;;;;14.27;6.00;;;;;;;-3.92;100.00;96977.22;10334726;28;20820;-63
2023/03/16 00:32:00;;;;;;;12.73;6.67;;;;;;;-3.99;100.00;96981.75;10332346;28;20303;-63
2023/03/16 00:37:01;;;;;;;17.03;6.67;;;;;;;-4.03;100.00;96981.03;10334651;28;20197;-63
2023/03/16 00:42:02;;;;;;;17.40;6.17;;;;;;;-4.09;100.00;96977.88;10333787;28;20592;-63
2023/03/16 00:47:03;;;;;;;16.47;6.60;;;;;;;-4.12;100.00;96986.50;10334102;28;20198;-63
2023/03/16 00:52:05;;;;;;;14.80;6.77;;;;;;;-4.13;100.00;96972.88;10333910;28;20704;-63
2023/03/16 00:57:10;;;;;;;17.60;7.70;;;;;;;-4.08;100.00;96982.13;10331336;28;20193;-62
2023/03/16 01:02:11;;;;;;;13.60;7.10;;;;;;;-4.07;100.00;96983.75;10348689;28;20218;-63
2023/03/16 01:07:13;;;;;;;16.63;5.97;;;;;;;-4.04;100.00;96994.72;10332884;28;20193;-63
2023/03/16 01:12:16;;;;;;;16.13;7.10;;;;;;;-4.01;100.00;96999.72;10333101;28;20204;-63
2023/03/16 01:17:17;;;;;;;12.43;6.13;;;;;;;-4.04;100.00;96994.72;10347873;28;20205;-62
2023/03/16 01:22:18;;;;;;;11.13;6.40;;;;;;;-4.03;100.00;96998.09;10332778;28;20556;-63
2023/03/16 01:27:18;;;;;;;13.63;6.73;;;;;;;-4.12;100.00;97004.41;10347611;28;20198;-63
2023/03/16 01:32:19;;;;;;;11.00;6.43;;;;;;;-4.02;100.00;97008.28;10331921;28;20206;-63
2023/03/16 01:37:21;;;;;;;14.80;6.13;;;;;;;-4.01;100.00;97003.97;10348025;28;20201;-63
2023/03/16 01:42:30;;;;;;;12.23;6.07;;;;;;;-3.98;100.00;97012.41;10329541;28;20226;-63
2023/03/16 01:47:37;;;;;;;13.07;6.80;;;;;;;-4.06;100.00;97009.28;10330305;28;20201;-63
2023/03/16 01:52:38;;;;;;;15.27;6.37;;;;;;;-3.93;100.00;97007.09;10330038;28;20712;-62
2023/03/16 01:57:42;;;;;;;14.47;6.60;;;;;;;-3.89;100.00;97007.81;10345823;28;20201;-62
2023/03/16 02:02:47;;;;;;;11.73;6.70;;;;;;;-3.87;100.00;96998.34;10330255;28;20250;-63
2023/03/16 02:07:57;;;;;;;17.07;5.80;;;;;;;-3.91;100.00;96996.81;10313640;28;20200;-62
2023/03/16 02:12:58;;;;;;;9.33;6.07;;;;;;;-3.98;100.00;96993.63;10329694;28;20194;-61
2023/03/16 02:17:59;;;;;;;10.53;6.53;;;;;;;-3.95;100.00;97004.59;10328704;28;20204;-62
2023/03/16 02:23:03;;;;;;;15.53;6.30;;;;;;;-3.95;100.00;96998.66;10329139;28;20786;-61
2023/03/16 02:28:29;;;;;;;13.73;6.97;;;;;;;-3.94;100.00;97000.31;10328611;28;20193;-62
2023/03/16 02:33:31;;;;;;;12.23;6.10;;;;;;;-4.02;100.00;96998.03;10312888;28;20193;-61
2023/03/16 02:43:37;;;;;;;10.97;6.00;;;;;;;-3.98;100.00;96996.19;10325051;28;20226;-61
2023/03/16 02:48:57;;;;;;;10.40;5.70;;;;;;;-3.99;100.00;96997.09;10296456;28;20292;-62
2023/03/16 02:53:57;;;;;;;13.50;6.37;;;;;;;-4.07;100.00;96997.41;10311039;28;20196;-59
2023/03/16 02:59:00;;;;;;;10.07;6.37;;;;;;;-4.15;100.00;97007.06;10327528;28;20268;-61
2023/03/16 03:04:01;;;;;;;17.93;6.70;;;;;;;-4.18;100.00;97007.19;10311122;28;20231;-62
2023/03/16 03:09:02;;;;;;;8.27;5.17;;;;;;;-4.22;100.00;97005.66;10311271;28;20244;-61
2023/03/16 03:14:04;;;;;;;12.37;6.23;;;;;;;-4.20;100.00;97009.81;10327529;28;20193;-61
2023/03/16 03:19:04;;;;;;;10.57;6.00;;;;;;;-4.32;100.00;97007.72;10310723;28;20620;-62
2023/03/16 03:24:09;;;;;;;13.53;6.30;;;;;;;-4.39;100.00;97014.81;10327648;28;20229;-60
2023/03/16 03:29:11;;;;;;;12.47;5.33;;;;;;;-4.42;100.00;97020.03;10328237;28;20211;-61
2023/03/16 03:34:12;;;;;;;12.57;6.80;;;;;;;-4.55;100.00;97012.00;10311860;28;20257;-62
2023/03/16 03:39:12;;;;;;;12.40;6.30;;;;;;;-4.45;100.00;97016.75;10327660;28;20363;-62
2023/03/16 03:44:13;;;;;;;63.00;25.77;;;;;;;-4.42;100.00;97027.69;10310670;28;20589;-62
2023/03/16 03:49:14;;;;;;;18.70;9.63;;;;;;;-4.43;100.00;97026.03;10326806;28;20217;-62
2023/03/16 03:54:14;;;;;;;16.77;6.97;;;;;;;-4.52;100.00;97024.66;10327552;28;20344;-62
2023/03/16 03:59:31;;;;;;;6.80;3.70;;;;;;;-4.46;100.00;97031.25;10326472;28;20229;-61
2023/03/16 04:04:31;;;;;;;16.17;8.50;;;;;;;-4.48;100.00;97033.03;10328618;28;20308;-62
2023/03/16 04:09:32;;;;;;;8.80;5.33;;;;;;;-4.49;100.00;97045.00;10334740;28;20213;-62
2023/03/16 04:14:33;;;;;;;7.80;4.77;;;;;;;-4.52;100.00;97047.66;10317458;28;20194;-62
2023/03/16 04:19:36;;;;;;;12.87;5.83;;;;;;;-4.77;100.00;97034.91;10316849;28;20220;-62
2023/03/16 04:24:39;;;;;;;9.00;4.23;;;;;;;-4.66;100.00;97037.91;10317079;28;20221;-62
2023/03/16 04:29:39;;;;;;;11.33;5.50;;;;;;;-4.69;100.00;97043.13;10316378;28;20252;-62
2023/03/16 04:34:42;;;;;;;8.60;4.97;;;;;;;-4.72;100.00;97032.19;10316815;28;20280;-62
2023/03/16 04:39:43;;;;;;;14.77;6.03;;;;;;;-4.76;100.00;97033.19;10315698;28;20241;-61
2023/03/16 04:44:44;;;;;;;15.00;5.50;;;;;;;-4.71;100.00;97028.75;10333836;28;21015;-62
2023/03/16 04:49:46;;;;;;;7.93;4.43;;;;;;;-4.64;100.00;97035.28;10315564;28;20594;-62
2023/03/16 04:54:46;;;;;;;15.60;4.60;;;;;;;-4.65;100.00;97028.53;10315528;28;20186;-62
2023/03/16 04:59:49;;;;;;;11.33;5.43;;;;;;;-4.81;100.00;97027.41;10315135;28;20582;-62
2023/03/16 05:05:12;;;;;;;6.10;3.43;;;;;;;-4.82;100.00;97030.84;10315377;28;20283;-61
2023/03/16 05:10:17;;;;;;;11.43;4.20;;;;;;;-4.89;100.00;97027.69;10314903;28;20307;-61
2023/03/16 05:15:18;;;;;;;9.27;4.80;;;;;;;-4.86;100.00;97036.06;10314974;28;20188;-60
2023/03/16 05:20:28;;;;;;;15.43;4.17;;;;;;;-4.73;100.00;97033.06;10314871;28;20213;-60
2023/03/16 05:25:33;;;;;;;13.67;4.73;;;;;;;-4.70;100.00;97030.41;10314407;28;20233;-61
2023/03/16 05:30:37;;;;;;;8.97;4.90;;;;;;;-4.80;100.00;97040.13;10313972;28;20591;-61
2023/03/16 05:35:41;;;;;;;13.70;5.03;;;;;;;-4.80;100.00;97039.31;10314637;28;20190;-61
2023/03/16 05:40:45;;;;;;;7.10;4.63;;;;;;;-4.91;100.00;97044.78;10313209;28;20723;-62
2023/03/16 05:45:57;;;;;;;10.40;5.60;;;;;;;-4.91;100.00;97045.63;10305594;28;20206;-61
2023/03/16 05:50:59;;;;;;;12.17;4.63;;;;;;;-4.96;100.00;97044.09;10273262;28;20226;-61
2023/03/16 05:56:02;;;;;;;12.63;5.00;;;;;;;-4.93;100.00;97044.00;10273231;28;20620;-61
2023/03/16 06:01:08;;;;;;;13.50;4.57;;;;;;;-4.92;100.00;97043.13;10272734;28;20210;-61
2023/03/16 06:06:08;;;;;;;9.83;4.33;;;;;;;-4.83;100.00;97042.78;10273298;28;20229;-59
2023/03/16 06:11:18;;;;;;;18.13;4.73;;;;;;;-4.72;100.00;97048.34;10272634;28;20214;-61
2023/03/16 06:16:19;;;;;;;14.67;5.73;;;;;;;-4.59;100.00;97050.50;10305259;28;20197;-62
2023/03/16 06:21:19;;;;;;;51.27;24.07;;;;;;;-4.58;100.00;97058.13;10306852;28;20305;-61
2023/03/16 06:26:24;;;;;;;10.53;4.87;;;;;;;-4.30;100.00;97052.81;10287824;28;20218;-62
2023/03/16 06:31:24;;;;;;;13.83;6.00;;;;;;;-3.69;100.00;97058.22;10271506;28;20597;-62
2023/03/16 06:36:25;;;;;;;15.40;5.10;;;;;;;-2.99;100.00;97044.25;10272727;28;20186;-62
2023/03/16 06:41:29;;;;;;;8.73;4.07;;;;;;;-2.44;100.00;97045.34;10271497;28;20321;-63
2023/03/16 06:46:31;;;;;;;5.80;3.43;;;;;;;-1.80;100.00;97037.25;10272155;28;20564;-61
2023/03/16 06:51:34;;;;;;;10.57;4.43;;;;;;;-2.09;100.00;97030.09;10278446;28;20212;-61
2023/03/16 06:56:34;;;;;;;6.83;3.73;;;;;;;-1.72;100.00;97023.25;10308589;28;20182;-62
2023/03/16 07:01:35;;;;;;;6.33;3.20;;;;;;;-1.41;100.00;97027.72;10308653;28;20209;-61
2023/03/16 07:06:36;;;;;;;11.37;4.63;;;;;;;-0.46;100.00;97027.25;10299073;28;20296;-62
2023/03/16 07:11:36;;;;;;;10.53;3.23;;;;;;;-0.14;100.00;97018.72;10328879;28;20288;-62
2023/03/16 07:16:37;;;;;;;8.67;3.50;;;;;;;-0.46;100.00;97013.53;10328097;28;20244;-62
2023/03/16 07:21:40;;;;;;;10.47;3.70;;;;;;;-0.38;100.00;97007.09;10311262;28;20584;-60
2023/03/16 07:26:45;;;;;;;7.07;2.97;;;;;;;-0.36;100.00;97030.16;10311202;28;20222;-59
2023/03/16 07:31:54;;;;;;;8.60;2.83;;;;;;;-0.06;100.00;97021.69;10311052;28;20236;-63
2023/03/16 07:36:58;;;;;;;4.57;2.13;;;;;;;0.61;100.00;97011.97;10310720;28;20573;-62
2023/03/16 07:42:03;;;;;;;9.47;2.50;;;;;;;1.08;100.00;96996.44;10315903;28;20249;-61
2023/03/16 07:47:12;;;;;;;6.07;2.20;;;;;;;1.38;100.00;96988.63;10318760;28;20286;-62
2023/03/16 07:52:13;;;;;;;8.93;2.43;;;;;;;1.88;100.00;96978.66;10318002;28;20213;-62
2023/03/16 07:57:14;;;;;;;4.00;1.33;;;;;;;2.31;93.65;96935.44;10335541;28;20498;-62
2023/03/16 08:02:18;;;;;;;8.10;1.67;;;;;;;2.68;89.06;96903.75;10323294;28;20213;-62
2023/03/16 08:07:19;;;;;;;4.70;1.70;;;;;;;2.88;84.98;96892.03;10314690;28;20695;-61
2023/03/16 08:12:27;;;;;;;4.97;1.70;;;;;;;3.28;80.30;96849.63;10314919;28;20240;-60
2023/03/16 08:17:27;;;;;;;5.30;1.40;;;;;;;4.03;76.02;96828.69;10327773;28;20293;-61
2023/03/16 08:22:29;;;;;;;4.73;1.53;;;;;;;3.32;72.10;96776.81;10292352;28;20773;-62
2023/03/16 08:27:30;;;;;;;9.37;1.93;;;;;;;3.00;73.25;96807.53;10306269;28;20194;-60
2023/03/16 08:32:34;;;;;;;3.67;1.40;;;;;;;3.72;71.24;96806.75;10311779;28;20202;-64
2023/03/16 08:37:35;;;;;;;3.53;1.33;;;;;;;4.06;71.18;96827.66;10304732;28;20201;-62
2023/03/16 08:42:38;;;;;;;4.20;1.37;;;;;;;4.36;68.71;96800.34;10296700;28;20707;-62
2023/03/16 08:47:39;;;;;;;6.20;1.40;;;;;;;4.47;66.25;96782.22;10302057;28;20189;-62
2023/03/16 08:52:41;;;;;;;6.70;1.50;;;;;;;5.50;65.13;96794.97;10310495;28;20695;-61
2023/03/16 08:57:45;;;;;;;4.87;1.67;;;;;;;4.59;65.81;96786.47;10376124;23;20249;-63
2023/03/16 09:02:45;;;;;;;5.80;1.57;;;;;;;4.63;66.60;96818.19;10368088;28;20217;-62
2023/03/16 09:07:46;;;;;;;3.93;1.53;;;;;;;4.47;67.64;96841.88;10368609;28;20213;-60
2023/03/16 09:12:46;;;;;;;3.17;1.07;;;;;;;5.48;64.17;96801.22;10372328;28;20602;-62
2023/03/16 09:17:47;;;;;;;4.60;1.23;;;;;;;5.02;64.51;96807.47;10372132;28;20221;-63
2023/03/16 09:22:48;;;;;;;4.70;1.30;;;;;;;4.80;64.90;96822.09;10360528;28;20750;-63
2023/03/16 09:27:48;;;;;;;3.60;1.67;;;;;;;4.76;66.67;96855.25;10355200;28;20220;-63
2023/03/16 09:32:49;;;;;;;6.60;1.73;;;;;;;4.17;66.38;96835.44;10364701;28;20277;-63
2023/03/16 09:37:51;;;;;;;5.93;1.83;;;;;;;5.25;64.70;96842.00;10365527;28;20282;-62
2023/03/16 09:43:01;;;;;;;4.93;1.53;;;;;;;4.90;63.95;96817.00;10366231;28;20217;-64
2023/03/16 09:48:03;;;;;;;2.03;1.37;;;;;;;5.16;65.05;96834.00;10350205;28;20255;-65
2023/03/16 09:53:17;;;;;;;4.80;1.40;;;;;;;5.02;63.93;96825.63;10365972;28;20212;-64
2023/03/16 09:58:20;;;;;;;6.77;1.70;;;;;;;5.89;63.94;96826.47;10358991;28;20241;-62
2023/03/16 10:03:28;;;;;;;3.67;2.07;;;;;;;5.84;60.80;96768.03;10366174;28;20863;-62
2023/03/16 10:08:36;;;;;;;4.67;1.67;;;;;;;6.27;59.78;96768.91;10366916;28;20752;-61
2023/03/16 10:13:41;;;;;;;4.77;2.20;;;;;;;6.45;60.77;96784.72;10364877;28;20185;-59
2023/03/16 10:18:45;;;;;;;7.30;1.90;;;;;;;5.21;64.06;96840.59;10381516;28;20301;-62
2023/03/16 10:23:48;;;;;;;5.90;3.40;;;;;;;5.45;62.12;96804.06;10365212;28;20279;-61
2023/03/16 10:28:48;;;;;;;6.27;2.27;;;;;;;6.02;63.14;96849.75;10347691;28;22420;-60
2023/03/16 10:33:57;;;;;;;5.13;1.83;;;;;;;6.35;58.47;96759.47;10365942;28;20185;-63
2023/03/16 10:39:16;;;;;;;4.63;2.07;;;;;;;6.31;58.64;96760.72;10350811;28;20228;-63
2023/03/16 10:44:28;;;;;;;4.17;1.70;;;;;;;6.06;56.19;96713.34;10363873;28;20213;-62
2023/03/16 10:49:35;;;;;;;6.10;1.80;;;;;;;5.99;58.42;96763.38;10377517;28;20209;-63
2023/03/16 10:54:39;;;;;;;3.30;1.77;;;;;;;6.01;57.67;96749.28;10363326;28;20234;-60
2023/03/16 10:59:39;;;;;;;3.33;1.90;;;;;;;5.70;60.01;96789.94;10364205;28;20237;-62
2023/03/16 11:04:40;;;;;;;3.57;1.63;;;;;;;6.77;55.32;96711.72;10361796;28;20792;-60
2023/03/16 11:09:42;;;;;;;5.20;2.00;;;;;;;5.80;53.73;96647.88;10353842;28;20762;-61
2023/03/16 11:14:44;;;;;;;6.03;2.50;;;;;;;4.92;57.32;96690.53;10361162;28;20610;-61
2023/03/16 11:19:51;;;;;;;3.90;2.20;;;;;;;5.84;57.60;96714.25;10347385;28;20275;-60
2023/03/16 11:25:10;;;;;;;6.20;1.87;;;;;;;6.57;54.82;96687.38;10372264;28;20225;-62
2023/03/16 11:30:22;;;;;;;5.80;2.13;;;;;;;6.98;54.50;96682.97;10343612;28;20578;-62
2023/03/16 11:35:37;;;;;;;7.27;2.60;;;;;;;7.16;54.17;96674.50;10370197;28;20197;-61
2023/03/16 11:40:46;;;;;;;7.70;2.43;;;;;;;6.57;54.48;96682.19;10362266;28;20214;-61
2023/03/16 11:46:09;;;;;;;6.63;2.07;;;;;;;6.33;52.75;96620.91;10352910;28;20309;-61
2023/03/16 11:51:54;;;;;;;4.77;2.33;;;;;;;7.36;54.05;96683.97;10373547;28;20272;-61
2023/03/16 11:56:58;;;;;;;7.37;2.60;;;;;;;6.94;53.55;96655.56;10288399;28;20233;-62
2023/03/16 12:02:07;;;;;;;4.27;2.30;;;;;;;6.42;53.22;96624.50;10365281;28;20189;-63
2023/03/16 12:07:36;;;;;;;7.70;2.23;;;;;;;5.92;53.94;96645.22;10368729;28;20283;-59
2023/03/16 12:12:47;;;;;;;8.50;2.10;;;;;;;6.86;53.79;96651.03;10336552;28;20198;-57
2023/03/16 12:17:50;;;;;;;7.27;2.40;;;;;;;7.28;49.24;96543.13;10360275;28;20272;-62
2023/03/16 12:22:51;;;;;;;3.70;1.73;;;;;;;7.85;51.08;96609.09;10359776;28;20296;-62
2023/03/16 12:27:53;;;;;;;11.03;2.20;;;;;;;7.37;50.34;96586.59;10369636;28;20233;-63
2023/03/16 12:33:03;;;;;;;6.17;2.80;;;;;;;6.05;55.36;96664.06;10366570;28;20244;-62
2023/03/16 12:38:30;;;;;;;6.20;2.63;;;;;;;6.98;53.23;96636.09;10359561;28;20284;-61
2023/03/16 12:43:48;;;;;;;4.03;2.00;;;;;;;7.47;50.70;96589.16;10349603;28;20221;-60
2023/03/16 12:48:52;;;;;;;6.53;2.23;;;;;;;7.54;50.86;96590.25;10359998;28;20221;-64
2023/03/16 12:53:54;;;;;;;4.77;2.50;;;;;;;8.21;52.91;96651.00;10367598;28;20582;-61
2023/03/16 12:58:56;;;;;;;4.33;2.27;;;;;;;8.32;50.08;96583.94;10369525;28;20245;-62
2023/03/16 13:04:11;;;;;;;6.13;2.20;;;;;;;7.36;49.56;96550.25;10369025;28;20661;-62
2023/03/16 13:09:17;;;;;;;9.57;2.83;;;;;;;6.56;52.75;96597.28;10351979;28;20282;-62
2023/03/16 13:14:41;;;;;;;6.03;2.17;;;;;;;6.68;51.55;96571.94;10369055;28;20198;-62
2023/03/16 13:19:44;;;;;;;6.13;2.37;;;;;;;7.02;50.35;96558.53;10368691;28;20220;-63
2023/03/16 13:24:58;;;;;;;6.83;2.30;;;;;;;6.80;52.07;96591.69;10350215;28;20229;-63
2023/03/16 13:30:02;;;;;;;4.97;2.07;;;;;;;7.75;46.15;96462.31;10368235;28;20213;-63
2023/03/16 13:35:04;;;;;;;6.20;2.00;;;;;;;7.44;45.61;96438.28;10369026;28;20178;-62
2023/03/16 13:40:18;;;;;;;6.40;2.00;;;;;;;7.85;46.32;96468.28;10366209;28;20217;-61
2023/03/16 13:45:33;;;;;;;4.37;1.70;;;;;;;8.11;46.20;96483.25;10364492;28;20217;-62
2023/03/16 13:50:34;;;;;;;3.87;1.80;;;;;;;7.40;45.61;96447.38;10367326;28;20241;-63
2023/03/16 13:55:35;;;;;;;3.70;1.30;;;;;;;6.90;46.33;96451.06;10366584;28;20189;-64
2023/03/16 14:00:36;;;;;;;7.87;1.80;;;;;;;6.63;46.24;96428.34;10366547;28;20320;-63
2023/03/16 14:05:36;;;;;;;2.30;1.80;;;;;;;6.84;47.46;96455.03;10366643;28;20233;-62
2023/03/16 14:10:39;;;;;;;4.70;2.10;;;;;;;6.85;51.38;96541.81;10366209;28;20213;-64
2023/03/16 14:15:39;;;;;;;4.20;2.30;;;;;;;6.93;49.91;96516.72;10366245;28;20193;-65
2023/03/16 14:20:40;;;;;;;4.90;2.23;;;;;;;6.81;50.52;96527.41;10366228;28;20766;-64
2023/03/16 14:25:40;;;;;;;3.97;2.40;;;;;;;6.67;51.82;96539.06;10365730;28;20229;-63
2023/03/16 14:30:50;;;;;;;6.07;2.57;;;;;;;7.14;51.62;96560.84;10372202;28;20641;-64
2023/03/16 14:35:53;;;;;;;5.50;2.17;;;;;;;7.80;48.60;96506.22;10406547;28;20185;-64
2023/03/16 14:40:56;;;;;;;6.97;1.93;;;;;;;6.96;48.44;96474.75;10405877;28;20553;-64
2023/03/16 14:45:57;;;;;;;4.53;3.00;;;;;;;7.32;50.64;96537.50;10336747;28;20297;-62
2023/03/16 14:51:00;;;;;;;5.33;3.00;;;;;;;7.95;49.99;96535.25;10361701;28;20196;-61
2023/03/16 14:56:00;;;;;;;6.17;3.00;;;;;;;8.20;50.04;96565.84;10359243;28;20247;-62
2023/03/16 15:01:01;;;;;;;5.43;3.20;;;;;;;8.72;49.85;96562.69;10361605;28;20633;-63
2023/03/16 15:06:01;;;;;;;7.43;3.03;;;;;;;8.45;47.70;96500.09;10362587;28;21128;-63
2023/03/16 15:11:04;;;;;;;4.47;2.67;;;;;;;7.90;48.42;96498.31;10364345;28;20240;-62
2023/03/16 15:16:06;;;;;;;9.73;4.67;;;;;;;7.72;51.35;96559.06;10363314;28;20195;-61
2023/03/16 15:21:11;;;;;;;53.80;25.23;;;;;;;7.43;52.68;96583.44;10351809;28;20300;-61
2023/03/16 15:26:14;;;;;;;7.43;3.47;;;;;;;8.33;50.83;96554.25;10347817;28;20259;-62
2023/03/16 15:31:14;;;;;;;18.53;9.37;;;;;;;9.57;48.74;96545.72;10346960;28;20200;-61
2023/03/16 15:36:17;;;;;;;10.50;4.17;;;;;;;7.62;51.08;96532.19;10362429;28;20211;-59
2023/03/16 15:41:17;;;;;;;3.80;2.43;;;;;;;8.01;50.88;96542.50;10363232;28;20235;-61
2023/03/16 15:46:18;;;;;;;5.73;2.63;;;;;;;8.50;50.28;96542.22;10362020;28;20231;-60
2023/03/16 15:51:25;;;;;;;6.33;2.77;;;;;;;7.17;53.43;96554.53;10340596;28;20190;-62
2023/03/16 15:56:30;;;;;;;6.93;2.77;;;;;;;7.48;53.70;96565.56;10319553;28;20246;-63
2023/03/16 16:01:38;;;;;;;5.67;2.70;;;;;;;7.56;53.46;96564.88;10344143;23;20256;-61
2023/03/16 16:06:38;;;;;;;6.80;3.33;;;;;;;6.13;56.31;96565.38;10409844;28;20298;-59
2023/03/16 16:11:40;;;;;;;11.87;3.70;;;;;;;4.95;59.91;96631.41;10410602;28;20586;-61
2023/03/16 16:16:41;;;;;;;5.37;3.23;;;;;;;4.26;61.98;96657.63;10409286;28;20192;-59
2023/03/16 16:21:41;;;;;;;23.57;9.77;;;;;;;4.06;63.58;96690.25;10423731;28;20239;-61
2023/03/16 16:26:49;;;;;;;3.70;2.63;;;;;;;3.96;64.24;96710.84;10409599;28;20228;-62
2023/03/16 16:31:53;;;;;;;5.57;4.00;;;;;;;3.87;65.23;96720.13;10409529;28;20244;-61
2023/03/16 16:36:54;;;;;;;7.93;3.47;;;;;;;3.75;66.00;96734.84;10408851;28;20200;-60
2023/03/16 16:41:55;;;;;;;9.17;4.10;;;;;;;3.66;66.38;96732.94;10408799;28;20772;-62
2023/03/16 16:46:56;;;;;;;6.83;3.37;;;;;;;3.51;66.91;96729.69;10409847;28;20212;-61
2023/03/16 16:51:57;;;;;;;4.60;3.13;;;;;;;3.41;67.23;96746.81;10409362;28;20208;-62
2023/03/16 16:56:59;;;;;;;8.80;4.17;;;;;;;3.21;68.22;96738.72;10409985;28;20671;-61
2023/03/16 17:02:00;;;;;;;6.50;3.33;;;;;;;3.06;67.79;96708.78;10409582;28;20320;-62
2023/03/16 17:07:01;;;;;;;11.00;3.90;;;;;;;2.95;68.28;96719.06;10407635;28;20263;-62
2023/03/16 17:12:01;;;;;;;8.03;3.80;;;;;;;2.85;68.60;96721.50;10408172;28;20300;-63
2023/03/16 17:17:05;;;;;;;9.07;4.70;;;;;;;2.77;69.51;96740.16;10408738;28;20185;-63
2023/03/16 17:22:20;;;;;;;9.87;5.07;;;;;;;2.46;70.70;96762.94;10408638;28;20263;-63
2023/03/16 17:27:26;;;;;;;8.40;3.90;;;;;;;2.52;71.21;96764.28;10408761;28;20216;-62
2023/03/16 17:32:26;;;;;;;9.63;4.40;;;;;;;2.29;72.25;96771.00;10409034;28;20221;-61
2023/03/16 17:37:27;;;;;;;7.90;4.43;;;;;;;2.33;73.03;96780.22;10406562;28;20199;-62
2023/03/16 17:42:27;;;;;;;8.63;4.40;;;;;;;2.15;74.42;96790.03;10409969;28;20679;-63
2023/03/16 17:47:30;;;;;;;8.17;4.73;;;;;;;2.12;74.79;96780.72;10409653;28;20212;-63
2023/03/16 17:52:30;;;;;;;11.97;6.40;;;;;;;1.86;75.88;96774.69;10408216;28;20224;-62
2023/03/16 17:57:32;;;;;;;15.97;5.33;;;;;;;1.99;73.45;96728.22;10409583;28;20522;-62
2023/03/16 18:02:48;;;;;;;10.17;4.50;;;;;;;2.01;72.34;96705.69;10408612;28;20637;-63
2023/03/16 18:07:50;;;;;;;5.07;3.37;;;;;;;2.01;71.13;96673.88;10408933;28;20247;-63
2023/03/16 18:13:00;;;;;;;9.97;4.50;;;;;;;2.10;71.07;96679.22;10408206;28;20653;-62
2023/03/16 18:18:01;;;;;;;9.33;4.20;;;;;;;2.03;72.36;96690.91;10408793;28;20201;-62
2023/03/16 18:23:13;;;;;;;10.60;3.90;;;;;;;2.18;70.87;96650.28;10406030;28;20700;-60
2023/03/16 18:28:13;;;;;;;6.03;3.50;;;;;;;2.19;69.64;96618.34;10408017;28;20201;-60
2023/03/16 18:33:23;;;;;;;7.50;3.30;;;;;;;2.18;69.60;96598.59;10408322;28;20200;-61
2023/03/16 18:38:28;;;;;;;7.63;3.00;;;;;;;2.26;69.55;96603.22;10407969;28;20536;-60
2023/03/16 18:43:29;;;;;;;8.90;3.43;;;;;;;2.28;68.81;96604.78;10407526;28;20224;-61
2023/03/16 18:48:32;;;;;;;3.23;2.10;;;;;;;2.37;68.55;96598.09;10382953;28;20197;-62
2023/03/16 18:53:32;;;;;;;5.83;2.60;;;;;;;2.44;68.54;96599.34;10407525;28;20583;-60
2023/03/16 18:58:34;;;;;;;6.73;2.93;;;;;;;2.40;70.01;96610.00;10407005;28;20204;-60
2023/03/16 19:03:37;;;;;;;5.00;2.97;;;;;;;2.52;69.65;96605.72;10406434;28;20345;-56
2023/03/16 19:08:38;;;;;;;6.70;3.07;;;;;;;2.53;70.51;96608.22;10422021;28;20201;-57
2023/03/16 19:13:38;;;;;;;2.93;1.80;;;;;;;2.51;70.26;96604.88;10405505;28;20598;-57
2023/03/16 19:23:43;;;;;;;14.57;3.77;;;;;;;2.50;70.57;96618.75;10405837;28;20320;-57
2023/03/16 19:28:44;;;;;;;8.20;3.47;;;;;;;2.45;71.13;96626.84;10406243;28;20207;-56
2023/03/16 19:33:45;;;;;;;5.93;3.23;;;;;;;2.40;70.78;96603.06;10406230;28;20270;-61
2023/03/16 19:38:49;;;;;;;6.10;2.90;;;;;;;2.38;70.68;96597.19;10412979;28;20261;-57
2023/03/16 19:43:50;;;;;;;6.57;2.27;;;;;;;2.40;69.39;96566.88;10414023;28;20934;-56
2023/03/16 19:48:51;;;;;;;3.70;1.90;;;;;;;2.40;69.28;96545.38;10412455;28;20196;-57
2023/03/16 19:53:51;;;;;;;4.43;2.47;;;;;;;2.44;68.32;96542.47;10414100;28;20209;-59
2023/03/16 19:58:52;;;;;;;5.77;2.90;;;;;;;2.38;68.76;96534.31;10413350;28;20184;-58
2023/03/16 20:03:52;;;;;;;4.90;3.00;;;;;;;2.40;68.47;96537.63;10410046;28;20244;-59
2023/03/16 20:08:53;;;;;;;8.77;4.03;;;;;;;2.35;68.75;96542.31;10415642;28;20319;-58
2023/03/16 20:13:53;;;;;;;7.67;3.17;;;;;;;2.42;68.18;96527.97;10413076;28;20262;-58
2023/03/16 20:18:57;;;;;;;8.27;3.20;;;;;;;2.44;67.81;96516.59;10411850;28;20200;-61
2023/03/16 20:23:57;;;;;;;7.47;3.43;;;;;;;2.49;67.39;96514.50;10410854;28;20951;-60
2023/03/16 20:28:59;;;;;;;10.07;3.23;;;;;;;2.48;67.83;96509.44;10409393;28;20200;-61
2023/03/16 20:34:00;;;;;;;5.10;2.57;;;;;;;2.54;67.41;96501.22;10407213;28;20631;-60
2023/03/16 20:39:00;;;;;;;8.60;2.87;;;;;;;2.54;66.90;96490.88;10409661;28;20250;-61
2023/03/16 20:44:02;;;;;;;6.90;3.07;;;;;;;2.57;67.28;96510.53;10410166;28;20306;-61
2023/03/16 20:49:04;;;;;;;4.47;3.07;;;;;;;2.55;66.70;96502.91;10408933;28;20216;-59
2023/03/16 20:54:06;;;;;;;5.80;3.20;;;;;;;2.54;66.68;96497.84;10408916;28;20216;-59
2023/03/16 20:59:10;;;;;;;8.73;3.67;;;;;;;2.45;67.35;96497.56;10404680;28;20196;-61
2023/03/16 21:04:19;;;;;;;4.77;2.60;;;;;;;2.43;67.89;96504.59;10423785;28;20255;-57
2023/03/16 21:09:20;;;;;;;6.33;3.23;;;;;;;2.41;67.79;96500.50;10411143;28;20197;-59
2023/03/16 21:14:22;;;;;;;8.80;4.13;;;;;;;2.32;68.61;96507.16;10409275;28;20212;-54
2023/03/16 21:19:22;;;;;;;8.70;3.97;;;;;;;2.32;68.13;96507.16;10406214;28;20299;-57
2023/03/16 21:24:23;;;;;;;5.63;3.10;;;;;;;2.47;66.22;96462.09;10410275;28;20651;-57
2023/03/16 21:29:23;;;;;;;7.57;3.63;;;;;;;2.35;66.60;96481.06;10409888;28;20570;-60
2023/03/16 21:34:26;;;;;;;7.47;2.33;;;;;;;2.36;66.01;96466.38;10410023;28;20687;-58
2023/03/16 21:39:27;;;;;;;7.63;2.97;;;;;;;2.45;65.02;96429.50;10407765;28;20203;-60
2023/03/16 21:44:27;;;;;;;7.07;3.67;;;;;;;2.42;64.13;96425.41;10409022;28;20676;-59
2023/03/16 21:49:28;;;;;;;6.37;3.87;;;;;;;2.38;64.27;96407.66;10408935;28;20197;-61
2023/03/16 21:54:28;;;;;;;7.13;2.87;;;;;;;2.39;63.59;96394.63;10408626;28;20219;-61
2023/03/16 21:59:28;;;;;;;7.70;3.33;;;;;;;2.24;64.07;96406.91;10408398;28;20196;-59
2023/03/16 22:04:29;;;;;;;4.77;2.80;;;;;;;2.45;61.55;96363.16;10408167;28;20232;-59
2023/03/16 22:09:31;;;;;;;6.93;3.40;;;;;;;2.38;61.80;96359.38;10409277;28;20188;-60
2023/03/16 22:14:32;;;;;;;6.27;3.60;;;;;;;2.42;61.67;96362.53;10408614;28;20250;-60
2023/03/16 22:19:32;;;;;;;5.13;3.13;;;;;;;2.55;61.45;96352.09;10407885;28;20853;-59
2023/03/16 22:24:34;;;;;;;5.70;3.20;;;;;;;2.71;60.60;96339.66;10408570;28;20236;-56
2023/03/16 22:29:35;;;;;;;6.43;3.50;;;;;;;2.59;61.20;96338.84;10406706;28;20291;-58
2023/03/16 22:34:41;;;;;;;5.30;3.03;;;;;;;2.53;61.72;96357.41;10408445;28;20642;-58
2023/03/16 22:39:41;;;;;;;6.60;3.20;;;;;;;2.62;61.24;96341.19;10406685;28;20192;-56
2023/03/16 22:44:42;;;;;;;7.70;3.43;;;;;;;2.59;61.48;96341.41;10407825;28;20574;-59
2023/03/16 22:49:42;;;;;;;6.20;3.30;;;;;;;2.57;61.16;96329.53;10407893;28;20278;-58
2023/03/16 22:54:44;;;;;;;6.50;2.73;;;;;;;2.67;59.96;96289.13;10407340;28;20204;-59
2023/03/16 22:59:46;;;;;;;7.00;3.30;;;;;;;2.73;59.74;96296.41;10407687;28;20561;-54
2023/03/16 23:04:46;;;;;;;6.30;2.40;;;;;;;2.61;60.79;96318.84;10378935;28;20235;-60
2023/03/16 23:09:47;;;;;;;8.10;3.30;;;;;;;2.75;59.51;96298.88;10368643;28;20195;-58
2023/03/16 23:14:47;;;;;;;12.50;3.97;;;;;;;2.57;60.36;96298.50;10374857;28;20237;-60
2023/03/16 23:19:47;;;;;;;6.63;3.10;;;;;;;2.56;60.59;96302.88;10373783;28;20343;-59
2023/03/16 23:24:48;;;;;;;9.50;4.10;;;;;;;2.54;60.67;96315.06;10374626;28;20229;-59
2023/03/16 23:29:48;;;;;;;7.23;3.03;;;;;;;2.55;60.76;96300.41;10373848;28;20242;-59
2023/03/16 23:34:49;;;;;;;5.23;2.83;;;;;;;2.48;60.49;96308.63;10374445;28;20205;-58
2023/03/16 23:39:49;;;;;;;6.23;2.23;;;;;;;2.51;60.74;96320.47;10373743;28;20185;-60
2023/03/16 23:44:49;;;;;;;7.67;3.13;;;;;;;2.53;60.10;96289.31;10373530;28;20232;-59